Time;durP1;ratioP1;P1;durP2;ratioP2;P2;SDS_P1;SDS_P2;PMS_P1;PMS_P2;Temp;Humidity;BMP_temperature;BMP_pressure;BME280_temperature;BME280_humidity;BME280_pressure;Samples;Min_cycle;Max_cycle;Signal;HPM_P1;HPM_P2
2020/12/22 00:10:54;;;;;;;57.17;34.35;;;;;;;7.48;71.41;100852.70;2312141;83;25715;-85
2020/12/22 00:14:36;;;;;;;59.03;34.20;;;;;;;7.47;71.35;100854.83;2292026;85;26262;-87
2020/12/22 00:17:57;;;;;;;62.13;35.63;;;;;;;7.46;71.30;100856.95;2254586;81;25558;-84
2020/12/22 00:21:50;;;;;;;62.13;37.10;;;;;;;7.44;71.26;100846.03;2261467;86;25689;-82
2020/12/22 00:25:23;;;;;;;59.53;34.95;;;;;;;7.44;71.22;100851.22;2282919;84;26019;-87
2020/12/22 00:28:56;;;;;;;63.33;36.00;;;;;;;7.41;71.16;100851.96;2282484;83;26030;-84
2020/12/22 00:32:34;;;;;;;58.02;33.88;;;;;;;7.40;71.13;100850.61;2279214;84;25684;-87
2020/12/22 00:36:31;;;;;;;57.20;34.30;;;;;;;7.39;71.08;100836.76;2274190;84;25722;-87
2020/12/22 01:33:59;;;;;;;50.10;31.27;;;;;;;7.13;70.61;100767.30;2428694;79;25644;-83
2020/12/22 01:37:27;;;;;;;54.58;32.67;;;;;;;7.13;70.57;100766.02;2537216;77;25544;-83
2020/12/22 01:45:38;;;;;;;53.80;31.23;;;;;;;7.14;70.53;100757.40;2530787;77;25943;-86
2020/12/22 02:08:27;;;;;;;51.08;31.05;;;;;;;7.09;70.30;100739.95;2511667;76;25712;-83
2020/12/22 02:12:37;;;;;;;52.00;30.95;;;;;;;7.07;70.33;100726.44;2523400;77;25599;-87
2020/12/22 02:15:59;;;;;;;50.75;29.48;;;;;;;7.07;70.29;100715.64;2527287;76;25663;-85
2020/12/22 02:38:30;;;;;;;43.85;26.90;;;;;;;7.04;70.09;100675.75;2436981;80;25609;-84
2020/12/22 02:41:51;;;;;;;48.75;28.65;;;;;;;7.04;70.07;100686.12;2442376;79;25641;-83
2020/12/22 02:45:13;;;;;;;44.77;27.70;;;;;;;7.04;70.04;100674.45;2402466;82;25362;-83
2020/12/22 02:48:34;;;;;;;48.23;27.87;;;;;;;7.04;69.99;100669.27;2448698;80;25558;-83
2020/12/22 02:51:56;;;;;;;45.03;28.12;;;;;;;7.03;69.96;100660.61;2403826;81;25769;-83
2020/12/22 02:55:17;;;;;;;45.30;26.68;;;;;;;7.04;69.94;100661.48;2448597;80;25713;-83
2020/12/22 02:58:38;;;;;;;45.70;27.98;;;;;;;7.03;69.91;100658.02;2403913;82;25363;-83
2020/12/22 03:02:01;;;;;;;40.30;27.73;;;;;;;7.03;69.88;100657.13;2448020;80;25548;-83
2020/12/22 03:05:22;;;;;;;39.40;25.88;;;;;;;7.02;69.83;100657.55;2447245;80;25674;-82
2020/12/22 03:08:44;;;;;;;41.58;26.20;;;;;;;7.01;69.77;100651.87;2403830;81;26123;-83
2020/12/22 03:12:05;;;;;;;37.42;26.05;;;;;;;7.00;69.75;100646.22;2448387;79;25896;-82
2020/12/22 03:15:27;;;;;;;43.38;26.80;;;;;;;7.01;69.71;100640.62;2403599;82;25346;-83
2020/12/22 03:18:48;;;;;;;44.20;25.90;;;;;;;6.99;69.68;100639.27;2437346;80;25618;-83
2020/12/22 03:22:30;;;;;;;42.55;27.15;;;;;;;6.99;69.62;100630.20;2431483;80;25627;-84
2020/12/22 03:26:07;;;;;;;40.70;25.37;;;;;;;6.98;69.58;100625.81;2308693;83;25771;-83
2020/12/22 03:29:46;;;;;;;42.17;26.85;;;;;;;6.98;69.56;100610.67;2317020;85;25760;-87
2020/12/22 03:33:07;;;;;;;41.50;25.85;;;;;;;6.96;69.54;100613.22;2322493;85;32843;-83
2020/12/22 03:36:28;;;;;;;42.43;25.85;;;;;;;6.96;69.51;100612.34;2325712;85;25834;-82
2020/12/22 03:39:53;;;;;;;36.85;24.57;;;;;;;6.94;69.46;100604.48;2320910;84;25813;-83
2020/12/22 03:43:18;;;;;;;42.25;25.40;;;;;;;6.93;69.42;100600.55;2372256;80;25652;-83
2020/12/22 03:46:40;;;;;;;44.63;28.83;;;;;;;6.92;69.40;100596.16;2509631;78;25477;-83
2020/12/22 03:50:06;;;;;;;46.20;28.65;;;;;;;6.93;69.37;100594.06;2531569;78;25523;-83
2020/12/22 03:53:35;;;;;;;41.40;27.50;;;;;;;6.90;69.31;100580.56;2530271;77;25640;-84
2020/12/22 03:56:57;;;;;;;45.83;28.40;;;;;;;6.90;69.28;100584.87;2528353;77;25660;-82
2020/12/22 04:00:25;;;;;;;51.80;29.98;;;;;;;6.89;69.24;100574.92;2524666;78;26090;-86
2020/12/22 04:03:46;;;;;;;41.10;26.85;;;;;;;6.88;69.15;100573.54;2532205;78;25648;-82
2020/12/22 04:07:08;;;;;;;44.65;26.97;;;;;;;6.86;69.14;100570.90;2529261;77;25576;-82
2020/12/22 04:10:31;;;;;;;47.55;28.60;;;;;;;6.84;69.14;100569.52;2531101;78;25371;-82
2020/12/22 04:13:52;;;;;;;47.48;28.20;;;;;;;6.83;69.11;100568.17;2531366;77;25600;-82
2020/12/22 04:17:14;;;;;;;44.08;28.50;;;;;;;6.81;69.08;100561.62;2523640;78;25565;-82
2020/12/22 04:25:09;;;;;;;47.88;30.30;;;;;;;6.79;69.03;100543.84;2493456;78;26083;-81
2020/12/22 04:28:31;;;;;;;43.02;27.20;;;;;;;6.77;69.01;100539.00;2506704;78;25757;-83
2020/12/22 04:31:54;;;;;;;48.78;29.82;;;;;;;6.76;68.95;100533.34;2504327;78;26041;-84
2020/12/22 04:35:26;;;;;;;45.28;29.02;;;;;;;6.76;68.92;100534.65;2513722;78;25692;-83
2020/12/22 04:39:08;;;;;;;48.28;30.25;;;;;;;6.75;68.89;100535.86;2514180;78;25663;-83
2020/12/22 04:42:35;;;;;;;46.90;29.30;;;;;;;6.72;68.86;100534.05;2503332;78;25609;-82
2020/12/22 04:46:02;;;;;;;48.40;30.75;;;;;;;6.72;68.84;100534.47;2512431;78;25373;-83
2020/12/22 04:49:53;;;;;;;45.67;29.15;;;;;;;6.73;68.83;100538.82;2509851;78;25617;-86
2020/12/22 04:53:16;;;;;;;45.38;28.67;;;;;;;6.71;68.77;100521.02;2490506;78;25863;-83
2020/12/22 04:56:38;;;;;;;47.83;29.32;;;;;;;6.70;68.74;100514.08;2512791;78;25656;-82
2020/12/22 05:00:30;;;;;;;49.77;29.07;;;;;;;6.69;68.72;100520.09;2511274;78;25591;-86
2020/12/22 05:03:51;;;;;;;49.88;30.35;;;;;;;6.68;68.72;100514.00;2517212;78;25668;-82
2020/12/22 07:50:21;;;;;;;33.78;21.35;;;;;;;6.59;67.06;100285.28;2347739;81;26209;-81
2020/12/22 07:58:28;;;;;;;37.37;22.77;;;;;;;6.68;66.80;100279.55;2528870;77;25733;-92
2020/12/22 08:02:02;;;;;;;22.22;16.80;;;;;;;6.64;66.81;100291.91;2489421;78;25452;-94
2020/12/22 08:06:49;;;;;;;37.35;20.62;;;;;;;6.77;68.81;100291.55;2393603;81;25752;-83
2020/12/22 08:10:24;;;;;;;31.57;19.32;;;;;;;6.84;68.49;100274.52;2381972;81;29948;-83
2020/12/22 08:14:59;;;;;;;31.02;20.52;;;;;;;6.84;68.42;100277.99;2305261;85;25812;-90
2020/12/22 08:24:09;;;;;;;30.05;20.00;;;;;;;6.87;68.33;100264.27;2556264;76;25708;-83
2020/12/22 08:37:51;;;;;;;30.50;20.23;;;;;;;6.83;67.98;100241.26;2306915;83;25848;-88
2020/12/22 08:51:31;;;;;;;29.02;19.92;;;;;;;6.60;66.70;100210.63;2480904;77;26081;-84
2020/12/22 09:35:52;;;;;;;33.10;19.95;;;;;;;6.18;65.37;100120.61;2424879;78;25818;-85
2020/12/22 09:39:42;;;;;;;27.02;18.60;;;;;;;6.12;65.36;100097.09;2448361;79;25730;-89
2020/12/22 09:43:37;;;;;;;29.50;19.48;;;;;;;6.08;65.40;100080.98;2270068;86;25768;-89
2020/12/22 09:47:20;;;;;;;;;;;;;;;6.03;65.43;100079.50;2279587;86;26295;-88
2020/12/22 09:51:39;;;;;;;30.45;18.52;;;;;;;6.01;65.46;100094.53;2281333;86;25744;-86
2020/12/22 09:59:35;;;;;;;33.10;21.62;;;;;;;5.92;65.62;100076.91;2236508;82;26280;-86
2020/12/22 10:02:58;;;;;;;30.35;20.05;;;;;;;5.92;65.75;100070.44;2372315;82;25780;-87
2020/12/22 10:06:36;;;;;;;26.27;18.85;;;;;;;5.91;65.86;100064.80;2352024;82;25871;-85
2020/12/22 10:10:32;;;;;;;26.55;18.57;;;;;;;5.89;65.88;100050.50;2368728;82;26249;-86
2020/12/22 10:14:12;;;;;;;27.55;19.05;;;;;;;5.88;66.00;100059.09;2314980;84;25795;-86
2020/12/22 10:27:32;;;;;;;;;;;;;;;5.83;66.27;100029.99;2329818;83;25704;-85
2020/12/22 10:30:54;;;;;;;24.18;17.73;;;;;;;5.80;66.38;100032.05;2316885;83;26216;-85
2020/12/22 10:34:24;;;;;;;28.57;19.23;;;;;;;5.78;66.50;100022.08;2193014;86;26227;-85
2020/12/22 10:37:50;;;;;;;;;;;;;;;5.77;66.59;100003.51;2331323;80;26224;-88
2020/12/22 10:41:33;;;;;;;26.35;18.23;;;;;;;5.78;66.65;100014.31;2312807;82;25822;-88
2020/12/22 10:45:27;;;;;;;25.87;18.40;;;;;;;5.80;66.78;100008.77;2566848;76;25672;-88
2020/12/22 10:49:03;;;;;;;30.65;18.30;;;;;;;5.74;66.86;99996.92;2500078;77;26739;-89
2020/12/22 10:52:52;;;;;;;27.95;19.23;;;;;;;5.75;66.93;99988.33;2299160;84;25822;-86
2020/12/22 10:56:19;;;;;;;24.52;17.80;;;;;;;5.74;67.04;99987.88;2304162;85;25684;-87
2020/12/22 10:59:55;;;;;;;32.13;19.27;;;;;;;5.71;67.11;99971.37;2301565;85;25791;-87
2020/12/22 11:03:36;;;;;;;22.70;18.07;;;;;;;5.68;67.21;99961.36;2303470;84;25757;-88
2020/12/22 11:10:56;;;;;;;30.20;18.90;;;;;;;5.65;67.42;99954.78;2256723;84;25647;-89
2020/12/22 11:14:32;;;;;;;24.27;18.10;;;;;;;5.63;67.57;99954.25;2337555;82;26040;-87
2020/12/22 11:18:02;;;;;;;23.07;17.55;;;;;;;5.59;67.66;99943.34;2352412;82;26225;-91
2020/12/22 11:21:24;;;;;;;24.02;16.42;;;;;;;5.57;67.78;99942.00;2353729;83;25763;-92
2020/12/22 11:24:52;;;;;;;28.98;19.30;;;;;;;5.56;67.88;99937.63;2351561;83;25657;-91
2020/12/22 11:28:30;;;;;;;25.55;18.17;;;;;;;5.55;67.97;99932.42;2359850;83;25743;-87
2020/12/22 11:32:02;;;;;;;26.55;18.12;;;;;;;5.55;68.07;99919.08;2335893;83;26139;-89
2020/12/22 11:35:23;;;;;;;30.02;18.80;;;;;;;5.56;68.14;99923.83;2348639;83;25653;-88
2020/12/22 11:48:40;;;;;;;25.52;17.07;;;;;;;5.52;68.46;99906.45;2403736;80;26400;-86
2020/12/22 11:52:38;;;;;;;31.62;19.25;;;;;;;5.50;68.59;99896.45;2296973;83;25739;-85
2020/12/22 11:56:20;;;;;;;28.57;17.87;;;;;;;5.49;68.64;99897.29;2241531;85;25869;-88
2020/12/22 12:10:21;;;;;;;24.33;15.97;;;;;;;5.55;69.46;99860.90;2450391;80;25664;-86
2020/12/22 12:13:45;;;;;;;28.35;17.92;;;;;;;5.48;69.46;99846.42;2499659;78;25606;-88
2020/12/22 12:17:23;;;;;;;24.75;17.37;;;;;;;5.49;69.47;99838.70;2467261;78;25788;-84
2020/12/22 12:21:19;;;;;;;29.67;18.03;;;;;;;5.59;69.51;99830.44;2494664;77;25667;-84
2020/12/22 12:25:00;;;;;;;24.18;17.02;;;;;;;5.58;69.48;99818.34;2442732;78;25753;-83
2020/12/22 12:28:53;;;;;;;26.07;17.10;;;;;;;5.62;69.47;99820.20;2451747;78;25794;-83
2020/12/22 12:32:58;;;;;;;27.58;16.97;;;;;;;5.64;69.50;99808.64;2324824;84;25668;-83
2020/12/22 12:37:04;;;;;;;;;;;;;;;;;;;;;
2020/12/22 12:45:17;;;;;;;24.23;16.95;;;;;;;5.57;69.64;99761.01;2233755;86;25832;-82
2020/12/22 13:00:06;;;;;;;38.87;21.70;;;;;;;5.39;70.19;99748.73;2384074;80;25772;-82
2020/12/22 13:04:29;;;;;;;;;;;;;;;;;;;;;
2020/12/22 13:08:37;;;;;;;33.02;20.75;;;;;;;5.32;70.43;99744.19;2012371;96;25948;-82
2020/12/22 13:22:43;;;;;;;23.27;16.17;;;;;;;5.52;70.69;99724.18;2430866;80;26326;-81
2020/12/22 13:26:05;;;;;;;21.17;16.70;;;;;;;5.49;70.66;99724.95;2394117;81;25698;-81
2020/12/22 13:29:26;;;;;;;26.40;16.80;;;;;;;5.52;70.73;99720.30;2282606;85;25718;-82
2020/12/22 13:32:48;;;;;;;25.25;17.50;;;;;;;5.54;70.75;99720.83;2285780;85;25729;-82
2020/12/22 13:36:35;;;;;;;22.35;16.30;;;;;;;5.57;70.76;99714.85;2326392;83;25751;-83
2020/12/22 13:40:47;;;;;;;22.80;16.12;;;;;;;5.58;70.82;99722.68;2289070;86;25965;-83
2020/12/22 13:44:54;;;;;;;26.23;17.17;;;;;;;5.60;70.87;99714.95;2273883;86;26324;-83
2020/12/22 13:49:02;;;;;;;23.80;16.40;;;;;;;5.63;70.94;99717.23;2230677;87;25953;-83
2020/12/22 14:03:28;;;;;;;20.17;14.07;;;;;;;5.72;71.16;99709.32;2602903;74;25750;-83
2020/12/22 14:06:58;;;;;;;24.40;15.10;;;;;;;5.66;71.22;99691.47;2573046;75;25715;-83
2020/12/22 14:10:21;;;;;;;24.57;15.55;;;;;;;5.70;71.28;99692.45;2558712;76;25802;-82
2020/12/22 14:14:00;;;;;;;23.07;14.50;;;;;;;5.71;71.25;99687.77;2588599;75;25716;-83
2020/12/22 14:28:33;;;;;;;16.00;12.93;;;;;;;5.81;71.59;99673.41;2504231;77;25527;-84
2020/12/22 14:32:33;;;;;;;15.72;13.13;;;;;;;5.76;71.57;99669.79;2362499;82;25918;-83
2020/12/22 14:37:08;;;;;;;;;;;;;;;;;;;;;
2020/12/22 14:41:19;;;;;;;13.18;11.08;;;;;;;5.78;71.76;99671.60;2178974;88;26300;-83
2020/12/22 14:45:34;;;;;;;;;;;;;;;5.79;71.78;99659.13;2043126;95;26015;-84
2020/12/22 15:04:44;;;;;;;13.73;11.53;;;;;;;5.88;72.16;99640.44;2520885;74;25704;-83
2020/12/22 15:53:42;;;;;;;;;;;;;;;;;;;;;
2020/12/22 15:57:34;;;;;;;13.10;11.68;;;;;;;6.06;72.78;99584.08;2237655;86;25883;-85
2020/12/22 16:02:29;;;;;;;;;;;;;;;;;;;;;
2020/12/22 16:07:05;;;;;;;;;;;;;;;;;;;;;
2020/12/22 16:15:13;;;;;;;13.15;11.03;;;;;;;6.19;72.93;99565.03;2138100;90;25829;-83
2020/12/22 16:30:01;;;;;;;17.13;12.47;;;;;;;6.29;73.29;99542.03;2479101;76;26102;-84
2020/12/22 16:42:55;;;;;;;16.70;12.50;;;;;;;6.33;73.40;99533.92;1988548;93;25960;-84
2020/12/22 16:47:20;;;;;;;15.63;11.85;;;;;;;6.35;73.42;99536.16;1894771;102;26090;-84
2020/12/22 16:55:27;;;;;;;18.62;12.80;;;;;;;6.40;73.59;99531.95;1903679;102;25941;-83
2020/12/22 17:09:59;;;;;;;16.33;11.73;;;;;;;6.52;73.88;99512.87;2460932;77;25787;-82
2020/12/22 17:13:35;;;;;;;20.35;12.05;;;;;;;6.51;73.86;99517.99;2250619;85;25921;-82
2020/12/22 17:17:09;;;;;;;14.63;11.85;;;;;;;6.53;73.81;99518.50;2258928;86;25719;-82
2020/12/22 17:32:08;;;;;;;;;;;;;;;;;;;;;
2020/12/22 17:36:06;;;;;;;14.20;10.35;;;;;;;6.67;74.04;99504.60;2476676;78;25822;-83
2020/12/22 17:40:26;;;;;;;15.95;11.85;;;;;;;6.72;74.02;99506.03;2366620;82;26470;-82
2020/12/22 18:10:29;;;;;;;;;;;;;;;;;;;;;
2020/12/22 18:19:34;;;;;;;;;;;;;;;;;;;;;
2020/12/22 18:42:34;;;;;;;10.88;8.85;;;;;;;7.23;74.68;99445.91;2286840;84;25660;-86
2020/12/22 18:46:30;;;;;;;10.35;8.90;;;;;;;7.27;74.71;99439.93;2059200;93;25782;-86
2020/12/22 19:00:31;;;;;;;8.90;6.90;;;;;;;7.52;75.45;99437.00;2503334;79;25650;-83
2020/12/22 19:18:57;;;;;;;13.93;11.50;;;;;;;7.77;76.01;99441.41;2476376;77;34622;-85
2020/12/22 19:22:29;;;;;;;10.15;9.10;;;;;;;7.86;75.73;99440.69;2447552;78;25707;-85
2020/12/22 19:36:28;;;;;;;8.40;7.53;;;;;;;8.10;76.34;99459.34;2469539;79;26033;-84
2020/12/22 19:39:56;;;;;;;9.75;8.83;;;;;;;8.07;76.27;99464.48;2429100;80;25756;-84
2020/12/22 19:58:08;;;;;;;10.23;9.13;;;;;;;8.36;76.61;99462.82;2385847;80;30654;-86
2020/12/22 20:01:30;;;;;;;9.98;8.73;;;;;;;8.36;76.64;99471.48;2342945;82;25591;-87
2020/12/22 20:04:51;;;;;;;12.30;7.92;;;;;;;8.40;76.62;99459.03;2346272;83;25805;-86
2020/12/22 20:08:33;;;;;;;11.90;7.75;;;;;;;8.45;76.67;99471.69;2327884;83;26135;-86
2020/12/22 20:12:01;;;;;;;11.20;8.98;;;;;;;8.49;76.69;99461.80;2310017;83;26252;-83
2020/12/22 20:20:18;;;;;;;10.03;8.87;;;;;;;8.66;76.79;99468.57;2523504;76;25999;-85
2020/12/22 20:24:01;;;;;;;10.68;8.33;;;;;;;8.66;76.80;99471.17;2488129;77;25760;-86
2020/12/22 20:43:01;;;;;;;11.30;8.53;;;;;;;8.83;77.04;99474.04;2249200;85;25707;-86
2020/12/22 20:51:27;;;;;;;11.15;8.23;;;;;;;8.90;77.07;99464.19;2246045;85;25769;-85
2020/12/22 21:05:56;;;;;;;9.43;8.47;;;;;;;9.06;77.31;99462.70;2355177;80;25705;-87
2020/12/22 21:09:32;;;;;;;8.03;7.22;;;;;;;9.06;77.17;99469.63;2294121;84;26216;-86
2020/12/22 21:24:20;;;;;;;9.23;8.33;;;;;;;9.19;77.09;99467.67;2438219;80;25519;-83
2020/12/22 21:27:42;;;;;;;10.28;7.72;;;;;;;9.17;76.99;99468.92;2399767;81;25840;-85
2020/12/22 21:31:05;;;;;;;9.38;8.30;;;;;;;9.20;77.00;99457.27;2314672;84;25727;-83
2020/12/22 21:34:26;;;;;;;9.03;7.95;;;;;;;9.23;76.95;99465.12;2316389;82;25937;-84
2020/12/22 21:38:48;;;;;;;8.48;7.65;;;;;;;9.27;77.00;99470.37;2400960;80;25754;-86
2020/12/22 21:47:58;;;;;;;9.83;7.53;;;;;;;9.37;77.72;99478.31;2090168;92;25913;-87
2020/12/22 22:02:38;;;;;;;11.83;10.43;;;;;;;9.52;77.32;99490.68;2525070;75;31786;-83
2020/12/22 22:05:59;;;;;;;9.85;8.55;;;;;;;9.59;77.09;99495.53;2480791;78;26253;-84
2020/12/22 22:09:21;;;;;;;9.33;8.43;;;;;;;9.62;77.07;99495.15;2479555;77;26021;-83
2020/12/22 22:12:57;;;;;;;9.30;8.45;;;;;;;9.64;77.08;99499.05;2474332;77;25740;-87
2020/12/22 22:16:24;;;;;;;8.43;7.62;;;;;;;9.65;77.03;99492.98;2392991;81;25919;-84
2020/12/22 22:19:55;;;;;;;9.50;8.15;;;;;;;9.67;77.04;99489.99;2372353;81;26096;-83
2020/12/22 22:23:22;;;;;;;;;;;;;;;9.68;77.01;99499.11;2396386;81;25834;-85
2020/12/22 22:27:25;;;;;;;7.08;5.85;;;;;;;9.70;76.99;99509.55;2394665;77;26278;-85
2020/12/22 22:36:25;;;;;;;8.13;7.22;;;;;;;9.84;77.62;99500.62;2309700;83;25808;-89
2020/12/22 22:40:20;;;;;;;8.33;7.53;;;;;;;9.85;77.44;99504.95;2320078;83;25907;-84
2020/12/22 22:55:50;;;;;;;9.10;6.50;;;;;;;9.93;77.25;99521.56;2452879;78;25877;-82
2020/12/22 23:15:59;;;;;;;7.42;6.70;;;;;;;10.05;77.04;99526.91;2422725;80;25803;-83
2020/12/22 23:20:15;;;;;;;;;;;;;;;;;;;;;
2020/12/22 23:38:47;;;;;;;6.50;5.83;;;;;;;10.23;77.46;99615.26;2556812;74;26986;-83
2020/12/22 23:43:02;;;;;;;5.55;5.05;;;;;;;10.19;77.50;99620.83;2290626;84;25858;-84
